Time;durP1;ratioP1;P1;durP2;ratioP2;P2;SDS_P1;SDS_P2;PMS_P1;PMS_P2;Temp;Humidity;BMP_temperature;BMP_pressure;BME280_temperature;BME280_humidity;BME280_pressure;Samples;Min_cycle;Max_cycle;Signal;HPM_P1;HPM_P2
2022/05/26 00:01:23;;;;;;;;;;;17.30;72.60;;;16.55;67.43;96139.22;4100884;34;19904;-82
2022/05/26 00:03:52;;;;;;;;;;;17.30;72.50;;;16.55;67.67;96269.13;4101324;34;19905;-82
2022/05/26 00:06:22;;;;;;;;;;;17.30;72.60;;;16.55;67.61;96354.78;4100658;34;19917;-82
2022/05/26 00:08:50;;;;;;;;;;;17.30;72.70;;;16.56;67.64;96373.00;4101057;34;20168;-83
2022/05/26 00:11:22;;;;;;;;;;;17.30;72.60;;;16.56;67.69;96395.13;4079291;34;20386;-82
2022/05/26 00:13:50;;;;;;;;;;;17.30;72.70;;;16.58;67.87;96382.94;4124263;34;19911;-82
2022/05/26 00:16:21;;;;;;;;;;;17.40;72.80;;;16.58;67.98;96369.13;4078533;34;19966;-82
2022/05/26 00:18:49;;;;;;;;;;;17.40;73.00;;;16.59;68.38;96376.28;4101096;34;19905;-83
2022/05/26 00:21:40;;;;;;;;;;;17.40;73.40;;;16.58;68.39;96355.31;4445549;28;20063;31
2022/05/26 00:24:09;;;;;;;;;;;17.40;73.60;;;16.57;68.57;96346.19;4044934;34;20171;-90
2022/05/26 00:26:37;;;;;;;;;;;17.30;73.60;;;16.56;68.32;96339.84;4023017;35;19921;-90
2022/05/26 00:29:06;;;;;;;;;;;17.30;73.40;;;16.56;68.51;96325.19;4023318;35;20345;-90
2022/05/26 00:31:36;;;;;;;;;;;17.30;73.60;;;16.56;68.69;96339.84;4021971;35;19928;-90
2022/05/26 00:34:05;;;;;;;;;;;17.30;73.80;;;16.55;68.59;96332.69;4023371;35;19913;-90
2022/05/26 00:36:41;;;;;;;;;;;17.30;73.80;;;16.55;68.56;96354.78;4002576;35;20220;-90
2022/05/26 00:39:13;;;;;;;;;;;17.30;73.70;;;16.54;68.77;96358.69;4023588;35;19996;-91
2022/05/26 00:41:43;;;;;;;;;;;17.30;73.80;;;16.55;68.54;96393.47;4001999;35;19913;-91
2022/05/26 00:44:12;;;;;;;;;;;17.30;73.60;;;16.55;68.52;96381.59;4023268;35;19912;-92
2022/05/26 00:46:49;;;;;;;;;;;17.30;73.80;;;16.56;69.40;96394.28;4002360;35;19924;-90
2022/05/26 00:49:27;;;;;;;;;;;17.30;74.30;;;16.55;68.67;96392.66;4002562;35;19905;-91
2022/05/26 00:51:55;;;;;;;;;;;17.30;74.10;;;16.55;68.84;96393.47;4001512;35;19913;-92
2022/05/26 00:54:25;;;;;;;;;;;17.30;74.00;;;16.55;68.81;96390.72;4001708;35;20048;-92
2022/05/26 00:56:59;;;;;;;;;;;17.30;74.00;;;16.53;68.93;96401.25;4045169;35;20179;-92
2022/05/26 00:59:37;;;;;;;;;;;17.30;74.00;;;16.55;69.22;96387.94;4045098;35;20100;-92
2022/05/26 01:02:07;;;;;;;;;;;17.30;74.00;;;16.53;69.07;96381.91;4023025;35;20127;-91
2022/05/26 01:04:41;;;;;;;;;;;17.30;74.30;;;16.56;68.98;96384.06;4023610;35;19959;-91
2022/05/26 01:07:14;;;;;;;;;;;17.30;74.10;;;16.55;68.95;96382.44;4002444;35;20003;-92
2022/05/26 01:09:43;;;;;;;;;;;17.30;74.20;;;16.54;68.79;96374.41;4023845;35;19992;-92
2022/05/26 01:12:11;;;;;;;;;;;17.30;74.00;;;16.53;68.82;96362.56;4022700;35;19969;-90
2022/05/26 01:14:44;;;;;;;;;;;17.30;73.80;;;16.54;68.38;96358.69;4023278;35;19905;-91
2022/05/26 01:17:22;;;;;;;;;;;17.30;73.50;;;16.53;68.48;96356.19;4001925;35;19906;-90
2022/05/26 01:20:34;;;;;;;;;;;17.30;73.60;;;16.55;68.66;96354.78;4002046;35;20219;-90
2022/05/26 01:24:09;;;;;;;;;;;17.30;73.50;;;16.55;68.44;96346.50;4001312;35;19913;-90
2022/05/26 01:27:30;;;;;;;;;;;17.30;73.60;;;16.55;68.81;96360.31;4018680;35;19913;-89
2022/05/26 01:30:20;;;;;;;;;;;17.30;73.80;;;16.55;68.50;96357.56;3997183;35;19912;-88
2022/05/26 01:33:00;;;;;;;;;;;17.30;73.80;;;16.55;68.50;96357.56;3975841;35;20066;-88
2022/05/26 01:35:30;;;;;;;;;;;17.30;73.60;;;16.55;68.92;96354.78;3976391;35;19910;-87
2022/05/26 01:38:09;;;;;;;;;;;17.30;73.60;;;16.55;68.50;96352.03;3996852;35;19906;-88
2022/05/26 01:40:41;;;;;;;;;;;17.30;73.50;;;16.55;68.31;96349.25;3996882;35;20333;-88
2022/05/26 01:43:13;;;;;;;;;;;17.30;73.50;;;16.56;68.48;96339.00;3998178;35;20061;-88
2022/05/26 01:45:52;;;;;;;;;;;17.30;73.50;;;16.55;68.41;96340.13;3999681;35;20090;-88
2022/05/26 01:48:25;;;;;;;;;;;17.30;73.40;;;16.54;68.09;96331.03;3999551;35;19906;-89
2022/05/26 01:50:58;;;;;;;;;;;17.30;73.40;;;16.55;68.23;96320.78;3999460;35;20217;-88
2022/05/26 01:53:30;;;;;;;;;;;17.30;73.30;;;16.55;68.38;96310.56;3977836;35;19913;-87
2022/05/26 01:56:03;;;;;;;;;;;17.30;73.40;;;16.54;68.27;96292.34;4016793;35;19917;-88
2022/05/26 01:58:34;;;;;;;;;;;17.30;73.40;;;16.56;68.33;96290.09;4024759;35;19912;-89
2022/05/26 02:01:20;;;;;;;;;;;17.30;73.30;;;16.55;68.23;96273.81;4003522;35;20076;-88
2022/05/26 02:03:50;;;;;;;;;;;17.30;73.30;;;16.54;68.22;96264.72;4024600;35;20217;-88
2022/05/26 02:06:22;;;;;;;;;;;17.30;73.40;;;16.55;68.16;96238.72;4024667;35;20107;-88
2022/05/26 02:08:56;;;;;;;;;;;17.30;73.30;;;16.54;68.40;96234.31;4003616;35;19905;-88
2022/05/26 02:11:25;;;;;;;;;;;17.30;73.40;;;16.54;68.32;96222.44;4024348;35;20331;-88
2022/05/26 02:13:56;;;;;;;;;;;17.30;73.40;;;16.54;68.33;96214.97;4024720;35;19906;-88
2022/05/26 02:16:30;;;;;;;;;;;17.30;73.30;;;16.54;68.10;96194.78;4003719;35;20067;-89
2022/05/26 02:19:02;;;;;;;;;;;17.30;73.20;;;16.53;68.16;96180.16;4024518;35;19906;-88
2022/05/26 02:21:32;;;;;;;;;;;17.30;73.30;;;16.53;68.18;96177.41;4024206;35;20247;-89
2022/05/26 02:24:06;;;;;;;;;;;17.30;73.20;;;16.54;68.16;96231.56;4003166;35;20277;-89
2022/05/26 02:26:35;;;;;;;;;;;17.30;73.20;;;16.52;68.19;96241.28;4024587;35;20144;-89
2022/05/26 02:31:52;;;;;;;;;;;17.30;73.20;;;16.53;68.16;96238.19;4002053;35;20232;-89
2022/05/26 02:34:22;;;;;;;;;;;17.30;73.20;;;16.54;68.09;96252.81;4024641;35;19916;-89
2022/05/26 02:36:53;;;;;;;;;;;17.30;73.10;;;16.53;67.99;96249.25;4024560;35;19907;-89
2022/05/26 02:39:22;;;;;;;;;;;17.30;73.20;;;16.52;67.91;96244.03;4003607;35;20139;-90
2022/05/26 02:41:52;;;;;;;;;;;17.30;73.20;;;16.53;67.99;96246.50;4024299;35;19905;-89
2022/05/26 02:44:21;;;;;;;;;;;17.30;73.10;;;16.53;68.07;96252.03;4024825;35;20039;-89
2022/05/26 02:46:58;;;;;;;;;;;17.30;73.20;;;16.54;68.13;96252.81;4024613;35;19905;-89
2022/05/26 02:49:47;;;;;;;;;;;17.30;73.10;;;16.52;68.09;96241.28;4024554;35;19906;-90
2022/05/26 02:52:22;;;;;;;;;;;17.30;73.20;;;16.51;68.02;96234.94;4024280;35;20025;-89
2022/05/26 02:55:01;;;;;;;;;;;17.30;73.20;;;16.52;68.00;96233.81;4002853;35;20216;-90
2022/05/26 02:57:36;;;;;;;;;;;17.30;73.20;;;16.52;68.06;96221.94;4024604;35;19912;-89
2022/05/26 03:00:07;;;;;;;;;;;17.30;73.20;;;16.53;68.32;96240.13;4003199;35;19977;-89
2022/05/26 03:02:40;;;;;;;;;;;17.30;73.20;;;16.50;68.09;96247.09;4003039;35;20094;-89
2022/05/26 03:05:14;;;;;;;;;;;17.30;73.30;;;16.51;68.18;96265.31;4003155;35;19905;-90
2022/05/26 03:07:45;;;;;;;;;;;17.30;73.30;;;16.52;68.10;96269.72;4003245;35;20027;-90
2022/05/26 03:10:15;;;;;;;;;;;17.30;73.30;;;16.53;68.17;96273.28;4024719;35;19905;-89
2022/05/26 03:12:44;;;;;;;;;;;17.30;73.30;;;16.53;68.11;96274.13;4023987;35;19913;-90
2022/05/26 03:15:13;;;;;;;;;;;17.30;73.30;;;16.51;68.20;96281.91;4003360;35;19906;-90
2022/05/26 03:17:41;;;;;;;;;;;17.30;73.30;;;16.52;68.15;96289.06;4003218;35;20156;-90
2022/05/26 03:20:13;;;;;;;;;;;17.30;73.20;;;16.53;68.08;96287.09;4024546;35;19984;-89
2022/05/26 03:22:41;;;;;;;;;;;17.30;73.30;;;16.52;68.30;96286.31;4002577;35;20058;-90
2022/05/26 03:25:10;;;;;;;;;;;17.30;73.30;;;16.52;68.20;96283.53;4003003;35;20149;-89
2022/05/26 03:27:39;;;;;;;;;;;17.30;73.30;;;16.52;68.30;96275.25;4003185;35;19917;-90
2022/05/26 03:30:09;;;;;;;;;;;17.30;73.20;;;16.52;68.14;96285.50;4024399;35;20150;-90
2022/05/26 03:32:37;;;;;;;;;;;17.30;73.30;;;16.50;68.12;96285.78;4024090;35;20144;-90
2022/05/26 03:40:47;;;;;;;;;;;17.30;73.30;;;16.53;68.09;96307.28;4024357;35;19905;-89
2022/05/26 03:43:16;;;;;;;;;;;17.30;73.30;;;16.50;68.04;96307.91;4023918;35;20310;-90
2022/05/26 03:45:44;;;;;;;;;;;17.30;73.30;;;16.52;68.16;96319.47;4003161;35;20186;-89
2022/05/26 03:48:13;;;;;;;;;;;17.30;73.30;;;16.53;68.30;96328.56;4003178;35;19905;-91
2022/05/26 03:50:42;;;;;;;;;;;17.30;73.30;;;16.52;68.21;96326.94;4024114;35;19906;-91
2022/05/26 03:53:12;;;;;;;;;;;17.30;73.30;;;16.53;68.28;96334.09;4002764;35;20320;-89
2022/05/26 03:55:41;;;;;;;;;;;17.30;73.30;;;16.55;68.50;96348.44;4003202;35;19905;-90
2022/05/26 03:58:10;;;;;;;;;;;17.30;73.20;;;16.55;68.02;96346.50;4024338;35;19905;-90
2022/05/26 04:00:38;;;;;;;;;;;17.30;73.20;;;16.56;68.12;96350.91;4003068;35;20115;-90
2022/05/26 04:03:07;;;;;;;;;;;17.30;73.20;;;16.58;68.18;96353.34;4002517;35;19905;-89
2022/05/26 04:05:36;;;;;;;;;;;17.40;73.20;;;16.55;68.22;96343.72;4024100;35;20136;-88
2022/05/26 04:08:29;;;;;;;;;;;17.40;73.20;;;16.56;68.34;96350.91;4023932;35;19954;-90
2022/05/26 04:10:58;;;;;;;;;;;17.40;73.20;;;16.57;68.19;96340.66;4002742;35;20098;-90
2022/05/26 04:13:29;;;;;;;;;;;17.40;73.20;;;16.62;67.80;96359.06;4023881;35;19906;-90
2022/05/26 04:15:58;;;;;;;;;;;17.40;73.10;;;16.65;68.06;96364.00;4002945;35;19905;-90
2022/05/26 04:18:27;;;;;;;;;;;17.40;73.00;;;16.68;68.03;96355.09;4024008;35;19906;-90
2022/05/26 04:21:05;;;;;;;;;;;17.40;72.90;;;16.71;67.96;96357.25;4002897;35;19905;-90
2022/05/26 04:23:35;;;;;;;;;;;17.50;72.90;;;16.73;67.95;96354.97;4023620;35;20179;-90
2022/05/26 04:26:04;;;;;;;;;;;17.50;72.80;;;16.76;68.07;96356.34;4002690;35;20113;-91
2022/05/26 04:28:32;;;;;;;;;;;17.50;72.90;;;16.80;67.61;96366.47;4002790;35;20017;-90
2022/05/26 04:31:02;;;;;;;;;;;17.60;72.60;;;16.81;67.69;96356.22;4002880;35;19905;-91
2022/05/26 04:33:31;;;;;;;;;;;17.60;72.50;;;16.84;67.42;96361.97;4023780;35;20154;-91
2022/05/26 04:36:03;;;;;;;;;;;17.60;72.40;;;16.87;67.32;96361.34;4023966;35;19906;-91
2022/05/26 04:38:32;;;;;;;;;;;17.70;72.30;;;16.90;67.32;96364.63;4002868;35;19905;-92
2022/05/26 04:41:04;;;;;;;;;;;17.70;72.10;;;16.91;67.10;96360.72;4023796;35;19905;-92
2022/05/26 04:43:33;;;;;;;;;;;17.70;72.10;;;16.93;67.08;96364.00;4002128;35;20355;-92
2022/05/26 04:46:02;;;;;;;;;;;17.70;72.10;;;16.92;67.28;96357.66;4002652;35;20135;-92
2022/05/26 04:48:31;;;;;;;;;;;17.70;72.00;;;16.96;66.93;96371.72;4019642;35;20130;-92
2022/05/26 04:51:01;;;;;;;;;;;17.80;71.90;;;16.95;67.07;96370.09;3998453;35;20086;-92
2022/05/26 04:53:30;;;;;;;;;;;17.80;71.80;;;16.96;66.98;96369.78;3997852;35;20025;-91
2022/05/26 04:55:59;;;;;;;;;;;17.80;71.70;;;16.96;66.57;96375.31;3998143;35;19906;-91
2022/05/26 04:58:29;;;;;;;;;;;17.80;71.70;;;16.94;66.91;96372.03;4019530;35;19906;-92
2022/05/26 05:00:57;;;;;;;;;;;17.80;71.70;;;16.92;67.12;96376.19;3998128;35;19913;-92
2022/05/26 05:03:26;;;;;;;;;;;17.70;72.50;;;16.89;67.08;96374.88;4019000;35;20344;-91
2022/05/26 05:05:56;;;;;;;;;;;17.70;71.90;;;16.86;67.21;96376.28;3977274;35;20004;-91
2022/05/26 05:08:25;;;;;;;;;;;17.70;71.80;;;16.83;67.14;96376.94;3977378;35;20240;-92
2022/05/26 05:10:54;;;;;;;;;;;17.70;72.00;;;16.84;67.25;96386.88;3977285;35;19978;-92
2022/05/26 05:13:23;;;;;;;;;;;17.60;71.90;;;16.82;67.20;96391.88;3997978;35;19915;-92
2022/05/26 05:15:57;;;;;;;;;;;17.60;72.10;;;16.80;67.24;96396.03;3998201;35;19906;-92
2022/05/26 05:18:25;;;;;;;;;;;17.60;72.10;;;16.79;67.22;96397.16;3988076;35;19916;-92
2022/05/26 05:20:55;;;;;;;;;;;17.60;72.30;;;16.78;67.41;96396.38;4023601;35;20051;-92
2022/05/26 05:23:23;;;;;;;;;;;17.60;72.30;;;16.74;67.63;96389.00;4044327;35;20196;-91
2022/05/26 05:25:52;;;;;;;;;;;17.50;72.60;;;16.74;67.65;96392.56;4002208;35;19905;-93
2022/05/26 05:28:25;;;;;;;;;;;17.50;72.70;;;16.73;67.59;96393.69;4002403;35;20068;-92
2022/05/26 05:30:56;;;;;;;;;;;17.50;72.70;;;16.72;67.87;96401.19;4002216;35;19906;-92
2022/05/26 05:33:26;;;;;;;;;;;17.50;72.80;;;16.72;67.75;96408.63;4023378;35;19906;-91
2022/05/26 05:35:59;;;;;;;;;;;17.50;72.70;;;16.71;67.68;96407.03;4002375;35;19912;-93
2022/05/26 05:38:27;;;;;;;;;;;17.50;72.80;;;16.69;67.99;96403.75;4002322;35;19905;-92
2022/05/26 05:40:56;;;;;;;;;;;17.50;72.90;;;16.70;67.96;96405.38;4002241;35;20062;-92
2022/05/26 05:43:25;;;;;;;;;;;17.50;73.10;;;16.69;68.23;96410.06;4001925;35;19912;-92
2022/05/26 05:45:58;;;;;;;;;;;17.50;73.20;;;16.70;68.33;96408.16;4002106;35;20172;-92
2022/05/26 05:48:26;;;;;;;;;;;17.50;73.30;;;16.68;68.02;96421.44;4002360;35;19921;-92
2022/05/26 05:50:55;;;;;;;;;;;17.50;73.20;;;16.69;67.96;96421.13;4001937;35;20148;-92
2022/05/26 05:53:24;;;;;;;;;;;17.50;73.00;;;16.69;68.17;96423.91;4001549;35;19905;-92
2022/05/26 05:55:53;;;;;;;;;;;17.50;73.10;;;16.68;68.05;96422.25;4002033;35;19994;-92
2022/05/26 05:58:25;;;;;;;;;;;17.50;73.00;;;16.69;67.97;96426.66;4001895;35;20125;-92
2022/05/26 06:00:55;;;;;;;;;;;17.50;73.10;;;16.69;68.01;96431.38;4001764;35;19905;-92
2022/05/26 06:03:24;;;;;;;;;;;17.50;73.00;;;16.68;68.00;96425.00;4022633;35;19905;-92
2022/05/26 06:05:53;;;;;;;;;;;17.50;73.00;;;16.70;67.95;96438.56;4001700;35;20361;-92
2022/05/26 06:08:22;;;;;;;;;;;17.50;72.90;;;16.69;67.87;96432.19;4001964;35;19987;-92
2022/05/26 06:10:50;;;;;;;;;;;17.50;72.90;;;16.71;67.72;96440.19;4002048;35;19967;-92
2022/05/26 06:13:19;;;;;;;;;;;17.50;72.80;;;16.70;67.58;96444.06;4001780;35;19906;-93
2022/05/26 06:15:48;;;;;;;;;;;17.50;72.80;;;16.71;67.81;96445.72;4001837;35;19913;-92
2022/05/26 06:18:18;;;;;;;;;;;17.50;72.80;;;16.70;67.68;96446.84;4002080;35;20129;-92
2022/05/26 06:20:47;;;;;;;;;;;17.50;72.80;;;16.71;67.59;96452.06;4045430;35;20093;-93
2022/05/26 06:23:18;;;;;;;;;;;17.50;72.90;;;16.72;67.68;96462.00;4001213;35;20078;-93
2022/05/26 06:26:37;;;;;;;;;;;17.50;72.70;;;16.71;67.66;96460.34;4001808;35;19912;-92
2022/05/26 06:37:28;;;;;;;;;;;17.50;72.60;;;16.74;67.57;96450.63;4004426;35;19906;-91
2022/05/26 06:39:57;;;;;;;;;;;17.50;72.60;;;16.75;67.64;96451.47;4025479;35;19913;-92
2022/05/26 06:42:26;;;;;;;;;;;17.50;72.60;;;16.75;67.52;96430.16;4004226;35;19905;-91
2022/05/26 06:45:03;;;;;;;;;;;17.50;72.60;;;16.76;67.63;96439.28;4025190;35;19925;-92
2022/05/26 06:47:32;;;;;;;;;;;17.50;72.60;;;16.74;67.60;96449.81;4025295;35;20232;-91
2022/05/26 06:50:02;;;;;;;;;;;17.50;72.60;;;16.76;67.75;96453.91;4004110;35;20014;-92
2022/05/26 06:52:31;;;;;;;;;;;17.60;72.50;;;16.80;67.64;96454.94;4003770;35;20120;-92
2022/05/26 06:55:00;;;;;;;;;;;17.60;72.70;;;16.84;67.44;96453.22;4025155;35;19905;-92
2022/05/26 06:57:28;;;;;;;;;;;17.60;72.70;;;16.87;67.41;96465.59;4003841;35;19906;-92
2022/05/26 06:59:57;;;;;;;;;;;17.60;72.40;;;16.90;67.39;96473.31;4003885;35;19905;-92
2022/05/26 07:02:26;;;;;;;;;;;17.70;72.50;;;16.92;67.23;96484.84;4024798;35;20121;-92
2022/05/26 07:04:54;;;;;;;;;;;17.70;72.40;;;16.90;67.19;96480.75;4003945;35;20390;-92
2022/05/26 07:07:26;;;;;;;;;;;17.70;72.20;;;16.89;67.21;96479.94;4004004;35;19906;-92
2022/05/26 07:09:55;;;;;;;;;;;17.70;72.30;;;16.87;67.30;96483.00;4004428;35;20036;-91
2022/05/26 07:12:24;;;;;;;;;;;17.70;72.20;;;16.87;67.37;96480.25;4025581;35;19905;-92
2022/05/26 07:14:54;;;;;;;;;;;17.70;72.30;;;16.88;67.37;96490.19;4004770;35;19909;-92
2022/05/26 07:17:22;;;;;;;;;;;17.70;72.30;;;16.87;67.37;96488.53;4025752;35;20169;-91
2022/05/26 07:19:51;;;;;;;;;;;17.60;72.20;;;16.87;67.20;96484.97;4025245;35;19954;-92
2022/05/26 07:22:20;;;;;;;;;;;17.70;72.30;;;16.90;67.21;96480.75;4004219;35;20576;-91
2022/05/26 07:24:51;;;;;;;;;;;17.70;72.40;;;16.96;67.27;96493.41;4004010;35;20113;-91
2022/05/26 07:27:19;;;;;;;;;;;17.70;72.40;;;16.98;67.16;96491.97;4026365;35;19906;-92
2022/05/26 07:29:49;;;;;;;;;;;17.80;72.30;;;17.01;67.16;96493.28;4004464;35;20171;-93
2022/05/26 07:32:19;;;;;;;;;;;17.80;72.30;;;17.06;67.19;96500.69;4024868;35;19905;-93
2022/05/26 07:34:48;;;;;;;;;;;17.80;72.10;;;17.06;66.94;96503.44;4003865;35;19975;-93
2022/05/26 07:42:51;;;;;;;;;;;17.90;71.90;;;17.16;66.72;96512.38;4003655;35;20047;-92
2022/05/26 07:45:20;;;;;;;;;;;17.90;71.70;;;17.13;66.91;96510.22;4025301;35;20344;-91
2022/05/26 07:47:49;;;;;;;;;;;17.90;71.60;;;17.12;66.72;96511.34;4024800;35;20505;-92
2022/05/26 07:50:20;;;;;;;;;;;17.90;71.80;;;17.14;66.89;96519.34;4003440;35;19924;-92
2022/05/26 07:52:49;;;;;;;;;;;17.90;71.70;;;17.12;66.84;96514.09;4024858;35;19905;-92
2022/05/26 07:55:20;;;;;;;;;;;17.90;71.70;;;17.12;66.69;96522.41;4003467;35;20216;-91
2022/05/26 07:57:49;;;;;;;;;;;17.90;71.60;;;17.09;66.39;96520.28;3998906;35;20017;-92
2022/05/26 08:00:18;;;;;;;;;;;17.90;71.80;;;17.11;67.02;96520.75;3978053;35;19906;-93
2022/05/26 08:02:47;;;;;;;;;;;17.90;71.80;;;17.12;66.82;96521.59;3977919;35;19913;-91
2022/05/26 08:05:16;;;;;;;;;;;17.90;71.90;;;17.14;66.73;96517.38;3978065;35;20076;-92
2022/05/26 08:07:45;;;;;;;;;;;17.90;72.90;;;17.21;66.71;96518.94;3977781;35;20121;-92
2022/05/26 08:10:15;;;;;;;;;;;18.00;71.80;;;17.26;66.88;96522.44;3978205;35;19985;-92
2022/05/26 08:12:45;;;;;;;;;;;18.00;71.60;;;17.30;66.55;96523.44;3978079;35;19906;-91
2022/05/26 08:15:13;;;;;;;;;;;18.00;71.50;;;17.30;66.40;96528.97;3978196;35;19906;-91
2022/05/26 08:17:42;;;;;;;;;;;18.10;71.30;;;17.32;66.44;96528.69;3977783;35;20466;-92
2022/05/26 08:20:11;;;;;;;;;;;18.10;71.20;;;17.29;66.32;96538.44;3977808;35;19906;-91
2022/05/26 08:22:40;;;;;;;;;;;18.10;71.10;;;17.29;65.96;96532.06;3977579;35;19978;-91
2022/05/26 08:25:10;;;;;;;;;;;18.10;71.30;;;17.27;66.39;96531.53;3977537;35;20217;-92
2022/05/26 08:27:38;;;;;;;;;;;18.10;71.20;;;17.27;66.64;96531.53;3977790;35;19906;-91
2022/05/26 08:30:10;;;;;;;;;;;18.00;71.20;;;17.29;66.47;96537.59;3977846;35;20220;-92
2022/05/26 08:32:44;;;;;;;;;;;18.10;71.30;;;17.29;66.38;96532.06;3977447;35;19946;-92
2022/05/26 08:35:14;;;;;;;;;;;18.10;71.40;;;17.31;66.57;96540.88;3977731;35;19906;-92
2022/05/26 08:37:42;;;;;;;;;;;18.10;71.30;;;17.32;66.45;96542.53;3977513;35;19932;-91
2022/05/26 08:40:28;;;;;;;;;;;18.10;71.20;;;17.31;66.36;96541.69;3998508;35;19906;-90
2022/05/26 08:42:57;;;;;;;;;;;18.10;71.20;;;17.30;66.37;96540.06;3977309;35;19913;-91
2022/05/26 08:45:27;;;;;;;;;;;18.10;71.40;;;17.30;66.31;96540.06;3977315;35;20095;-90
2022/05/26 08:47:56;;;;;;;;;;;18.10;71.20;;;17.31;66.52;96546.41;3996124;35;19913;-91
2022/05/26 08:50:46;;;;;;;;;;;18.10;71.30;;;17.32;66.32;96537.00;4023277;35;20146;-91
2022/05/26 08:53:20;;;;;;;;;;;18.10;71.40;;;17.35;66.34;96541.91;4023192;35;19912;-90
2022/05/26 08:55:51;;;;;;;;;;;18.10;71.20;;;17.38;66.26;96537.72;4023886;35;20426;-89
2022/05/26 08:58:34;;;;;;;;;;;18.20;71.10;;;17.39;65.93;96536.59;4019348;35;20029;-90
2022/05/26 09:01:04;;;;;;;;;;;18.20;71.10;;;17.40;66.35;96536.28;4002539;35;19905;-91
2022/05/26 09:03:34;;;;;;;;;;;18.20;71.00;;;17.40;66.28;96532.69;4001892;35;19906;-90
2022/05/26 09:06:05;;;;;;;;;;;18.20;70.90;;;17.43;66.19;96527.38;4023571;35;19905;-89
2022/05/26 09:14:20;;;;;;;;;;;18.20;70.80;;;17.47;66.16;96522.88;4002123;35;20224;-89
2022/05/26 09:16:56;;;;;;;;;;;18.30;70.80;;;17.49;66.03;96531.66;4002122;35;19962;-89
2022/05/26 09:19:25;;;;;;;;;;;18.30;70.80;;;17.50;65.98;96529.72;4023261;35;20105;-90
2022/05/26 09:21:54;;;;;;;;;;;18.30;70.70;;;17.50;65.99;96529.72;4023135;35;20139;-90
2022/05/26 09:24:25;;;;;;;;;;;18.30;70.60;;;17.48;66.05;96524.50;4023189;35;19905;-89
2022/05/26 09:26:56;;;;;;;;;;;18.30;70.70;;;17.48;66.25;96530.03;4023265;35;20063;-89
2022/05/26 09:29:27;;;;;;;;;;;18.30;70.80;;;17.45;66.39;96541.72;4044675;35;19912;-89
2022/05/26 09:31:58;;;;;;;;;;;18.30;70.80;;;17.42;66.29;96533.22;4023132;35;19914;-89
2022/05/26 09:34:28;;;;;;;;;;;18.20;70.80;;;17.43;66.23;96534.81;4002036;35;19913;-90
2022/05/26 09:37:00;;;;;;;;;;;18.20;70.80;;;17.40;66.46;96541.81;4002120;35;19912;-90
2022/05/26 09:39:34;;;;;;;;;;;18.20;71.00;;;17.38;66.31;96549.59;4023217;35;20155;-91
2022/05/26 09:42:05;;;;;;;;;;;18.20;71.10;;;17.37;66.49;96545.19;4023069;35;19905;-91
2022/05/26 09:44:52;;;;;;;;;;;18.20;71.10;;;17.37;66.53;96544.38;4002096;35;19905;-89
2022/05/26 09:47:27;;;;;;;;;;;18.20;71.20;;;17.34;66.67;96545.81;4001948;35;19917;-91
2022/05/26 09:49:58;;;;;;;;;;;18.10;71.20;;;17.33;66.68;96560.78;4001978;35;20125;-91
2022/05/26 09:52:28;;;;;;;;;;;18.10;71.40;;;17.32;66.71;96564.66;4001280;35;20140;-91
2022/05/26 09:55:24;;;;;;;;;;;18.10;71.50;;;17.27;66.76;96553.69;4023063;35;20144;-89
2022/05/26 09:58:06;;;;;;;;;;;18.10;71.50;;;17.27;66.88;96571.13;4001891;35;20165;-90
2022/05/26 10:00:39;;;;;;;;;;;18.10;71.60;;;17.25;66.88;96587.19;4001854;35;20608;-91
2022/05/26 10:03:14;;;;;;;;;;;18.00;71.60;;;17.24;67.07;96587.47;4023414;35;20169;-90
2022/05/26 10:05:47;;;;;;;;;;;18.00;71.60;;;17.20;67.02;96597.53;4024814;35;20163;-89
2022/05/26 10:08:21;;;;;;;;;;;18.00;71.70;;;17.18;66.97;96595.06;4024654;35;19913;-89
2022/05/26 10:10:53;;;;;;;;;;;18.00;71.80;;;17.17;67.06;96602.56;4024693;35;20068;-88
2022/05/26 10:13:48;;;;;;;;;;;18.00;71.80;;;17.16;67.52;96606.44;4046432;35;20190;-89
2022/05/26 10:16:20;;;;;;;;;;;17.90;72.00;;;17.12;67.20;96594.31;4003756;35;20101;-90
2022/05/26 10:19:04;;;;;;;;;;;17.90;72.10;;;17.13;67.02;96584.09;4045896;35;23270;-89
2022/05/26 10:21:51;;;;;;;;;;;17.90;72.10;;;17.13;67.55;96595.97;4003138;35;20166;-89
2022/05/26 10:24:52;;;;;;;;;;;17.90;72.20;;;17.11;67.40;96592.69;4045851;35;20075;-89
2022/05/26 10:27:41;;;;;;;;;;;17.90;72.30;;;17.09;67.50;96589.44;4038219;35;19913;-88
2022/05/26 10:30:26;;;;;;;;;;;17.90;72.40;;;17.12;67.51;96599.06;4024685;35;19921;-89
2022/05/26 10:33:18;;;;;;;;;;;17.90;72.40;;;17.10;67.63;96595.75;4003116;35;19912;-89
2022/05/26 10:35:58;;;;;;;;;;;17.90;72.30;;;17.11;67.33;96609.28;3999176;35;20166;-89
2022/05/26 10:38:52;;;;;;;;;;;17.90;72.40;;;17.10;67.52;96607.66;3999318;35;19906;-89
2022/05/26 10:41:27;;;;;;;;;;;17.90;72.40;;;17.09;67.49;96602.41;3978545;35;20205;-89
2022/05/26 10:44:01;;;;;;;;;;;17.90;72.30;;;17.08;67.61;96604.38;4020383;35;19905;-89
2022/05/26 10:46:29;;;;;;;;;;;17.90;72.40;;;17.11;67.52;96611.25;3999410;35;19905;-90
2022/05/26 10:49:02;;;;;;;;;;;17.90;72.40;;;17.11;67.58;96614.81;3978237;35;20081;-89
2022/05/26 10:51:36;;;;;;;;;;;17.90;72.50;;;17.11;67.47;96614.00;3977761;35;19906;-90
2022/05/26 10:54:07;;;;;;;;;;;17.90;72.50;;;17.10;67.47;96615.97;3999064;35;19912;-90
2022/05/26 10:56:42;;;;;;;;;;;17.90;72.50;;;17.11;67.59;96616.78;3999097;35;19913;-90
2022/05/26 10:59:18;;;;;;;;;;;17.90;72.50;;;17.12;67.53;96627.53;4020409;35;19917;-90
2022/05/26 11:01:50;;;;;;;;;;;17.90;72.50;;;17.13;67.64;96612.56;3977886;35;20164;-90
2022/05/26 11:04:23;;;;;;;;;;;17.90;72.40;;;17.15;67.55;96604.00;3999230;35;19906;-90
2022/05/26 11:06:53;;;;;;;;;;;17.90;72.40;;;17.16;67.41;96611.16;3999022;35;20113;-90
2022/05/26 11:09:25;;;;;;;;;;;17.90;72.40;;;17.16;67.50;96606.44;3999047;35;19906;-90
2022/05/26 11:11:58;;;;;;;;;;;18.00;72.40;;;17.18;67.30;96598.66;3998514;35;20279;-90
2022/05/26 11:17:44;;;;;;;;;;;18.00;72.20;;;17.18;67.20;96593.13;3959785;35;20022;-90
2022/05/26 11:20:18;;;;;;;;;;;18.00;72.30;;;17.21;67.29;96596.41;3978036;35;19906;-90
2022/05/26 11:22:49;;;;;;;;;;;18.00;72.00;;;17.21;67.11;96594.47;3998424;35;20128;-89
2022/05/26 11:25:24;;;;;;;;;;;18.00;71.90;;;17.22;67.03;96592.53;3998832;35;19990;-91
2022/05/26 11:27:54;;;;;;;;;;;18.00;72.70;;;17.24;67.14;96587.47;3998828;35;19906;-90
2022/05/26 11:36:11;;;;;;;;;;;18.00;71.80;;;17.25;67.30;96591.91;3978051;35;19906;-90
2022/05/26 11:38:44;;;;;;;;;;;18.00;71.80;;;17.26;67.04;96574.16;3998943;35;19979;-89
2022/05/26 11:41:15;;;;;;;;;;;18.00;71.80;;;17.25;67.15;96586.34;3977930;35;19906;-90
2022/05/26 11:43:46;;;;;;;;;;;18.00;71.80;;;17.28;66.94;96588.53;3977513;35;20019;-89
2022/05/26 11:46:56;;;;;;;;;;;18.10;71.90;;;17.29;67.03;96592.94;3977874;35;20120;-90
2022/05/26 11:50:20;;;;;;;;;;;18.10;71.80;;;17.29;66.89;96581.88;3977965;35;19906;-89
2022/05/26 11:53:36;;;;;;;;;;;18.10;71.80;;;17.28;66.69;96589.38;3977624;35;20092;-90
2022/05/26 11:56:46;;;;;;;;;;;18.10;71.80;;;17.29;66.94;96598.47;3976923;35;19913;-91
2022/05/26 11:59:46;;;;;;;;;;;18.10;71.80;;;17.28;67.13;96596.81;3977839;35;19906;-91
2022/05/26 12:02:37;;;;;;;;;;;18.10;71.90;;;17.29;67.02;96598.47;3977427;35;19906;-91
2022/05/26 12:05:47;;;;;;;;;;;18.10;71.90;;;17.27;67.04;96596.03;3977871;35;19965;-91
2022/05/26 12:08:58;;;;;;;;;;;18.10;72.00;;;17.28;67.09;96596.81;3998684;35;19905;-92
2022/05/26 12:11:57;;;;;;;;;;;18.10;72.00;;;17.27;67.23;96595.19;4012825;35;20013;-91
2022/05/26 12:14:29;;;;;;;;;;;18.10;72.10;;;17.28;67.01;96600.44;4024143;35;20180;-92
2022/05/26 12:17:33;;;;;;;;;;;18.10;72.10;;;17.28;67.43;96599.59;4024036;35;20246;-92
2022/05/26 12:20:05;;;;;;;;;;;18.10;72.00;;;17.28;67.11;96591.28;4002690;35;19911;-92
2022/05/26 12:23:06;;;;;;;;;;;18.00;72.00;;;17.27;67.36;96596.03;4002422;35;20477;-92
2022/05/26 12:26:12;;;;;;;;;;;18.10;72.30;;;17.29;67.16;96581.88;4001956;35;19906;-91